sensor_id;sensor_type;location;lat;lon;timestamp;P1;durP1;ratioP1;P2;durP2;ratioP2
74876;SDS011;63425;44.786;37.682;2022-10-16T00:02:25;12.65;;;3.30;;
74876;SDS011;63425;44.786;37.682;2022-10-16T00:04:54;9.32;;;3.10;;
74876;SDS011;63425;44.786;37.682;2022-10-16T00:07:22;8.77;;;2.92;;
74876;SDS011;63425;44.786;37.682;2022-10-16T00:09:53;9.67;;;2.87;;
74876;SDS011;63425;44.786;37.682;2022-10-16T00:12:21;13.65;;;4.05;;
74876;SDS011;63425;44.786;37.682;2022-10-16T00:14:47;7.60;;;2.45;;
74876;SDS011;63425;44.786;37.682;2022-10-16T00:17:14;14.70;;;3.50;;
74876;SDS011;63425;44.786;37.682;2022-10-16T00:19:44;11.40;;;3.42;;
74876;SDS011;63425;44.786;37.682;2022-10-16T00:22:30;11.40;;;3.70;;
74876;SDS011;63425;44.786;37.682;2022-10-16T00:25:01;12.15;;;3.65;;
74876;SDS011;63425;44.786;37.682;2022-10-16T00:27:31;8.68;;;3.33;;
74876;SDS011;63425;44.786;37.682;2022-10-16T00:30:11;9.57;;;2.90;;
74876;SDS011;63425;44.786;37.682;2022-10-16T00:32:39;10.27;;;3.38;;
74876;SDS011;63425;44.786;37.682;2022-10-16T00:35:17;16.73;;;3.37;;
74876;SDS011;63425;44.786;37.682;2022-10-16T00:38:04;14.45;;;3.63;;
74876;SDS011;63425;44.786;37.682;2022-10-16T00:40:34;12.68;;;3.85;;
74876;SDS011;63425;44.786;37.682;2022-10-16T00:43:08;9.02;;;2.45;;
74876;SDS011;63425;44.786;37.682;2022-10-16T00:46:01;10.80;;;3.47;;
74876;SDS011;63425;44.786;37.682;2022-10-16T00:48:30;8.87;;;3.03;;
74876;SDS011;63425;44.786;37.682;2022-10-16T00:51:00;9.88;;;3.50;;
74876;SDS011;63425;44.786;37.682;2022-10-16T00:53:27;12.18;;;2.95;;
74876;SDS011;63425;44.786;37.682;2022-10-16T00:55:54;12.90;;;3.83;;
74876;SDS011;63425;44.786;37.682;2022-10-16T00:58:23;13.25;;;2.92;;
74876;SDS011;63425;44.786;37.682;2022-10-16T01:00:52;9.73;;;3.43;;
74876;SDS011;63425;44.786;37.682;2022-10-16T01:03:25;12.68;;;3.20;;
74876;SDS011;63425;44.786;37.682;2022-10-16T01:08:58;7.60;;;2.90;;
74876;SDS011;63425;44.786;37.682;2022-10-16T01:15:23;7.40;;;2.40;;
74876;SDS011;63425;44.786;37.682;2022-10-16T01:18:03;9.35;;;3.78;;
74876;SDS011;63425;44.786;37.682;2022-10-16T01:23:56;13.52;;;3.08;;
74876;SDS011;63425;44.786;37.682;2022-10-16T01:32:28;8.27;;;2.22;;
74876;SDS011;63425;44.786;37.682;2022-10-16T01:37:54;7.57;;;2.35;;
74876;SDS011;63425;44.786;37.682;2022-10-16T01:40:36;8.68;;;3.03;;
74876;SDS011;63425;44.786;37.682;2022-10-16T01:43:21;10.10;;;2.60;;
74876;SDS011;63425;44.786;37.682;2022-10-16T01:46:12;9.60;;;2.80;;
74876;SDS011;63425;44.786;37.682;2022-10-16T01:49:02;11.23;;;3.28;;
74876;SDS011;63425;44.786;37.682;2022-10-16T01:51:31;7.40;;;2.15;;
74876;SDS011;63425;44.786;37.682;2022-10-16T01:54:00;9.63;;;3.17;;
74876;SDS011;63425;44.786;37.682;2022-10-16T01:56:33;10.07;;;2.60;;
74876;SDS011;63425;44.786;37.682;2022-10-16T01:59:13;6.93;;;2.35;;
74876;SDS011;63425;44.786;37.682;2022-10-16T02:01:55;10.73;;;3.30;;
74876;SDS011;63425;44.786;37.682;2022-10-16T02:07:11;10.00;;;3.25;;
74876;SDS011;63425;44.786;37.682;2022-10-16T02:09:55;16.37;;;3.00;;
74876;SDS011;63425;44.786;37.682;2022-10-16T02:12:25;11.43;;;2.13;;
74876;SDS011;63425;44.786;37.682;2022-10-16T02:14:54;8.65;;;2.63;;
74876;SDS011;63425;44.786;37.682;2022-10-16T02:17:40;6.95;;;1.95;;
74876;SDS011;63425;44.786;37.682;2022-10-16T02:20:07;9.63;;;2.33;;
74876;SDS011;63425;44.786;37.682;2022-10-16T02:22:45;10.77;;;2.77;;
74876;SDS011;63425;44.786;37.682;2022-10-16T02:25:25;9.88;;;2.92;;
74876;SDS011;63425;44.786;37.682;2022-10-16T02:28:08;10.75;;;3.20;;
74876;SDS011;63425;44.786;37.682;2022-10-16T02:30:56;12.45;;;3.28;;
74876;SDS011;63425;44.786;37.682;2022-10-16T02:33:55;8.40;;;2.38;;
74876;SDS011;63425;44.786;37.682;2022-10-16T02:36:24;12.20;;;3.33;;
74876;SDS011;63425;44.786;37.682;2022-10-16T02:38:54;9.90;;;2.53;;
74876;SDS011;63425;44.786;37.682;2022-10-16T02:41:24;7.40;;;2.13;;
74876;SDS011;63425;44.786;37.682;2022-10-16T02:43:53;12.70;;;3.72;;
74876;SDS011;63425;44.786;37.682;2022-10-16T02:46:22;9.02;;;2.47;;
74876;SDS011;63425;44.786;37.682;2022-10-16T02:48:51;14.10;;;3.30;;
74876;SDS011;63425;44.786;37.682;2022-10-16T02:51:31;8.30;;;2.33;;
74876;SDS011;63425;44.786;37.682;2022-10-16T02:54:01;9.10;;;2.80;;
74876;SDS011;63425;44.786;37.682;2022-10-16T02:56:39;6.38;;;1.83;;
74876;SDS011;63425;44.786;37.682;2022-10-16T02:59:06;9.13;;;3.08;;
74876;SDS011;63425;44.786;37.682;2022-10-16T03:01:34;8.63;;;3.10;;
74876;SDS011;63425;44.786;37.682;2022-10-16T03:04:03;8.38;;;2.95;;
74876;SDS011;63425;44.786;37.682;2022-10-16T03:06:32;6.43;;;1.92;;
74876;SDS011;63425;44.786;37.682;2022-10-16T03:09:00;9.00;;;2.00;;
74876;SDS011;63425;44.786;37.682;2022-10-16T03:11:27;8.77;;;2.65;;
74876;SDS011;63425;44.786;37.682;2022-10-16T03:13:54;9.17;;;1.63;;
74876;SDS011;63425;44.786;37.682;2022-10-16T03:16:23;8.38;;;2.67;;
74876;SDS011;63425;44.786;37.682;2022-10-16T03:18:51;9.35;;;3.58;;
74876;SDS011;63425;44.786;37.682;2022-10-16T03:21:22;8.02;;;2.05;;
74876;SDS011;63425;44.786;37.682;2022-10-16T03:23:51;13.02;;;3.10;;
74876;SDS011;63425;44.786;37.682;2022-10-16T03:26:17;10.50;;;2.57;;
74876;SDS011;63425;44.786;37.682;2022-10-16T03:29:04;10.63;;;2.28;;
74876;SDS011;63425;44.786;37.682;2022-10-16T03:31:41;10.88;;;3.72;;
74876;SDS011;63425;44.786;37.682;2022-10-16T03:34:11;11.55;;;2.80;;
74876;SDS011;63425;44.786;37.682;2022-10-16T03:36:42;12.73;;;3.35;;
74876;SDS011;63425;44.786;37.682;2022-10-16T03:39:11;11.83;;;2.83;;
74876;SDS011;63425;44.786;37.682;2022-10-16T03:41:40;8.38;;;3.40;;
74876;SDS011;63425;44.786;37.682;2022-10-16T03:44:07;10.45;;;3.80;;
74876;SDS011;63425;44.786;37.682;2022-10-16T03:46:41;14.05;;;3.50;;
74876;SDS011;63425;44.786;37.682;2022-10-16T03:49:10;10.90;;;3.28;;
74876;SDS011;63425;44.786;37.682;2022-10-16T03:51:36;10.53;;;3.00;;
74876;SDS011;63425;44.786;37.682;2022-10-16T03:54:14;9.80;;;2.72;;
74876;SDS011;63425;44.786;37.682;2022-10-16T03:56:42;10.63;;;3.00;;
74876;SDS011;63425;44.786;37.682;2022-10-16T03:59:31;10.20;;;3.25;;
74876;SDS011;63425;44.786;37.682;2022-10-16T04:02:01;13.32;;;3.72;;
74876;SDS011;63425;44.786;37.682;2022-10-16T04:04:30;14.40;;;4.20;;
74876;SDS011;63425;44.786;37.682;2022-10-16T04:06:57;10.15;;;3.15;;
74876;SDS011;63425;44.786;37.682;2022-10-16T04:09:24;10.68;;;3.35;;
74876;SDS011;63425;44.786;37.682;2022-10-16T04:11:52;14.60;;;3.15;;
74876;SDS011;63425;44.786;37.682;2022-10-16T04:14:20;12.13;;;3.20;;
74876;SDS011;63425;44.786;37.682;2022-10-16T04:17:01;11.80;;;3.57;;
74876;SDS011;63425;44.786;37.682;2022-10-16T04:19:28;10.35;;;2.33;;
74876;SDS011;63425;44.786;37.682;2022-10-16T04:22:24;10.75;;;2.70;;
74876;SDS011;63425;44.786;37.682;2022-10-16T04:24:52;11.73;;;3.42;;
74876;SDS011;63425;44.786;37.682;2022-10-16T04:27:21;11.35;;;3.28;;
74876;SDS011;63425;44.786;37.682;2022-10-16T04:29:50;8.40;;;2.73;;
74876;SDS011;63425;44.786;37.682;2022-10-16T04:32:17;11.27;;;2.83;;
74876;SDS011;63425;44.786;37.682;2022-10-16T04:34:44;12.73;;;3.00;;
74876;SDS011;63425;44.786;37.682;2022-10-16T04:37:13;7.45;;;2.13;;
74876;SDS011;63425;44.786;37.682;2022-10-16T04:39:44;11.77;;;2.85;;
74876;SDS011;63425;44.786;37.682;2022-10-16T04:42:13;13.47;;;2.67;;
74876;SDS011;63425;44.786;37.682;2022-10-16T04:44:42;12.43;;;3.78;;
74876;SDS011;63425;44.786;37.682;2022-10-16T04:47:09;12.63;;;2.90;;
74876;SDS011;63425;44.786;37.682;2022-10-16T04:49:36;10.02;;;3.20;;
74876;SDS011;63425;44.786;37.682;2022-10-16T04:52:04;10.88;;;2.92;;
74876;SDS011;63425;44.786;37.682;2022-10-16T04:54:32;13.33;;;2.87;;
74876;SDS011;63425;44.786;37.682;2022-10-16T04:57:01;14.52;;;3.33;;
74876;SDS011;63425;44.786;37.682;2022-10-16T04:59:34;15.73;;;4.25;;
74876;SDS011;63425;44.786;37.682;2022-10-16T05:02:04;12.45;;;2.97;;
74876;SDS011;63425;44.786;37.682;2022-10-16T05:04:33;10.40;;;2.95;;
74876;SDS011;63425;44.786;37.682;2022-10-16T05:07:05;14.90;;;3.33;;
74876;SDS011;63425;44.786;37.682;2022-10-16T05:09:43;10.35;;;3.10;;
74876;SDS011;63425;44.786;37.682;2022-10-16T05:12:11;14.98;;;2.75;;
74876;SDS011;63425;44.786;37.682;2022-10-16T05:14:40;10.63;;;2.35;;
74876;SDS011;63425;44.786;37.682;2022-10-16T05:17:16;9.90;;;3.28;;
74876;SDS011;63425;44.786;37.682;2022-10-16T05:19:44;15.37;;;2.90;;
74876;SDS011;63425;44.786;37.682;2022-10-16T05:22:13;9.20;;;3.15;;
74876;SDS011;63425;44.786;37.682;2022-10-16T05:24:43;10.65;;;3.15;;
74876;SDS011;63425;44.786;37.682;2022-10-16T05:27:12;13.23;;;3.90;;
74876;SDS011;63425;44.786;37.682;2022-10-16T05:29:46;14.52;;;4.07;;
74876;SDS011;63425;44.786;37.682;2022-10-16T05:32:24;30.43;;;6.73;;
74876;SDS011;63425;44.786;37.682;2022-10-16T05:34:52;17.75;;;5.28;;
74876;SDS011;63425;44.786;37.682;2022-10-16T05:37:23;27.75;;;8.00;;
74876;SDS011;63425;44.786;37.682;2022-10-16T05:39:52;16.02;;;3.63;;
74876;SDS011;63425;44.786;37.682;2022-10-16T05:42:21;10.05;;;3.17;;
74876;SDS011;63425;44.786;37.682;2022-10-16T05:44:50;11.70;;;3.10;;
74876;SDS011;63425;44.786;37.682;2022-10-16T05:47:23;11.65;;;3.38;;
74876;SDS011;63425;44.786;37.682;2022-10-16T05:49:52;14.25;;;3.65;;
74876;SDS011;63425;44.786;37.682;2022-10-16T05:52:50;10.55;;;2.42;;
74876;SDS011;63425;44.786;37.682;2022-10-16T05:55:25;7.90;;;2.67;;
74876;SDS011;63425;44.786;37.682;2022-10-16T05:58:02;12.43;;;2.30;;
74876;SDS011;63425;44.786;37.682;2022-10-16T06:00:31;15.48;;;3.03;;
74876;SDS011;63425;44.786;37.682;2022-10-16T06:03:13;13.77;;;3.40;;
74876;SDS011;63425;44.786;37.682;2022-10-16T06:05:41;21.33;;;7.15;;
74876;SDS011;63425;44.786;37.682;2022-10-16T06:08:11;23.50;;;7.80;;
74876;SDS011;63425;44.786;37.682;2022-10-16T06:11:11;39.20;;;9.17;;
74876;SDS011;63425;44.786;37.682;2022-10-16T06:13:40;46.35;;;12.05;;
74876;SDS011;63425;44.786;37.682;2022-10-16T06:16:13;10.85;;;3.42;;
74876;SDS011;63425;44.786;37.682;2022-10-16T06:18:43;17.23;;;4.80;;
74876;SDS011;63425;44.786;37.682;2022-10-16T06:21:17;14.40;;;4.38;;
74876;SDS011;63425;44.786;37.682;2022-10-16T06:23:57;12.73;;;4.67;;
74876;SDS011;63425;44.786;37.682;2022-10-16T06:26:25;21.95;;;7.35;;
74876;SDS011;63425;44.786;37.682;2022-10-16T06:28:55;9.25;;;2.97;;
74876;SDS011;63425;44.786;37.682;2022-10-16T06:31:24;12.63;;;4.05;;
74876;SDS011;63425;44.786;37.682;2022-10-16T06:34:03;11.25;;;3.50;;
74876;SDS011;63425;44.786;37.682;2022-10-16T06:36:34;19.20;;;5.47;;
74876;SDS011;63425;44.786;37.682;2022-10-16T06:39:03;12.80;;;3.45;;
74876;SDS011;63425;44.786;37.682;2022-10-16T06:41:41;24.45;;;7.90;;
74876;SDS011;63425;44.786;37.682;2022-10-16T06:44:15;9.88;;;2.72;;
74876;SDS011;63425;44.786;37.682;2022-10-16T06:46:43;31.60;;;10.13;;
74876;SDS011;63425;44.786;37.682;2022-10-16T06:49:21;11.87;;;4.43;;
74876;SDS011;63425;44.786;37.682;2022-10-16T06:51:52;9.27;;;2.85;;
74876;SDS011;63425;44.786;37.682;2022-10-16T06:54:21;11.63;;;3.72;;
74876;SDS011;63425;44.786;37.682;2022-10-16T06:56:50;15.55;;;4.15;;
74876;SDS011;63425;44.786;37.682;2022-10-16T06:59:30;36.88;;;11.40;;
74876;SDS011;63425;44.786;37.682;2022-10-16T07:02:01;17.07;;;3.50;;
74876;SDS011;63425;44.786;37.682;2022-10-16T07:04:30;11.75;;;3.10;;
74876;SDS011;63425;44.786;37.682;2022-10-16T07:07:00;11.13;;;3.33;;
74876;SDS011;63425;44.786;37.682;2022-10-16T07:09:29;11.07;;;3.50;;
74876;SDS011;63425;44.786;37.682;2022-10-16T07:12:06;10.20;;;3.15;;
74876;SDS011;63425;44.786;37.682;2022-10-16T07:14:34;11.73;;;2.77;;
74876;SDS011;63425;44.786;37.682;2022-10-16T07:17:03;8.32;;;2.60;;
74876;SDS011;63425;44.786;37.682;2022-10-16T07:19:32;6.78;;;2.35;;
74876;SDS011;63425;44.786;37.682;2022-10-16T07:22:01;36.03;;;11.10;;
74876;SDS011;63425;44.786;37.682;2022-10-16T07:24:36;15.55;;;3.10;;
74876;SDS011;63425;44.786;37.682;2022-10-16T07:27:04;12.57;;;3.27;;
74876;SDS011;63425;44.786;37.682;2022-10-16T07:29:32;8.30;;;2.88;;
74876;SDS011;63425;44.786;37.682;2022-10-16T07:31:59;9.35;;;1.90;;
74876;SDS011;63425;44.786;37.682;2022-10-16T07:34:36;9.57;;;2.17;;
74876;SDS011;63425;44.786;37.682;2022-10-16T07:37:03;11.50;;;3.25;;
74876;SDS011;63425;44.786;37.682;2022-10-16T07:39:33;6.60;;;2.00;;
74876;SDS011;63425;44.786;37.682;2022-10-16T07:42:10;9.43;;;2.80;;
74876;SDS011;63425;44.786;37.682;2022-10-16T07:44:42;7.20;;;1.77;;
74876;SDS011;63425;44.786;37.682;2022-10-16T07:47:11;9.35;;;2.00;;
74876;SDS011;63425;44.786;37.682;2022-10-16T07:49:40;7.85;;;1.77;;
74876;SDS011;63425;44.786;37.682;2022-10-16T07:52:06;9.10;;;2.33;;
74876;SDS011;63425;44.786;37.682;2022-10-16T07:54:35;9.57;;;2.08;;
74876;SDS011;63425;44.786;37.682;2022-10-16T07:57:03;8.05;;;2.28;;
74876;SDS011;63425;44.786;37.682;2022-10-16T07:59:43;10.18;;;2.85;;
74876;SDS011;63425;44.786;37.682;2022-10-16T08:02:12;11.80;;;1.90;;
74876;SDS011;63425;44.786;37.682;2022-10-16T08:04:41;15.27;;;2.73;;
74876;SDS011;63425;44.786;37.682;2022-10-16T08:07:10;10.68;;;2.17;;
74876;SDS011;63425;44.786;37.682;2022-10-16T08:09:43;9.65;;;2.60;;
74876;SDS011;63425;44.786;37.682;2022-10-16T08:12:12;13.57;;;1.83;;
74876;SDS011;63425;44.786;37.682;2022-10-16T08:14:40;12.18;;;2.50;;
74876;SDS011;63425;44.786;37.682;2022-10-16T08:17:06;45.63;;;5.80;;
74876;SDS011;63425;44.786;37.682;2022-10-16T08:19:34;9.90;;;2.70;;
74876;SDS011;63425;44.786;37.682;2022-10-16T08:22:04;8.63;;;1.80;;
74876;SDS011;63425;44.786;37.682;2022-10-16T08:24:33;10.30;;;2.72;;
74876;SDS011;63425;44.786;37.682;2022-10-16T08:27:11;11.20;;;2.45;;
74876;SDS011;63425;44.786;37.682;2022-10-16T08:29:39;8.83;;;2.17;;
74876;SDS011;63425;44.786;37.682;2022-10-16T08:32:06;12.00;;;2.67;;
74876;SDS011;63425;44.786;37.682;2022-10-16T08:34:52;9.68;;;2.10;;
74876;SDS011;63425;44.786;37.682;2022-10-16T08:37:21;6.60;;;1.83;;
74876;SDS011;63425;44.786;37.682;2022-10-16T08:39:48;9.25;;;2.83;;
74876;SDS011;63425;44.786;37.682;2022-10-16T08:42:25;8.03;;;2.40;;
74876;SDS011;63425;44.786;37.682;2022-10-16T08:45:07;8.95;;;2.75;;
74876;SDS011;63425;44.786;37.682;2022-10-16T08:48:00;13.75;;;3.13;;
74876;SDS011;63425;44.786;37.682;2022-10-16T08:50:41;10.85;;;2.05;;
74876;SDS011;63425;44.786;37.682;2022-10-16T08:53:23;7.68;;;2.38;;
74876;SDS011;63425;44.786;37.682;2022-10-16T08:55:56;9.43;;;2.37;;
74876;SDS011;63425;44.786;37.682;2022-10-16T08:58:31;10.07;;;2.80;;
74876;SDS011;63425;44.786;37.682;2022-10-16T09:01:03;15.98;;;3.58;;
74876;SDS011;63425;44.786;37.682;2022-10-16T09:03:46;10.48;;;2.20;;
74876;SDS011;63425;44.786;37.682;2022-10-16T09:06:42;28.23;;;4.00;;
74876;SDS011;63425;44.786;37.682;2022-10-16T09:09:27;8.23;;;2.40;;
74876;SDS011;63425;44.786;37.682;2022-10-16T09:23:49;10.47;;;2.93;;
74876;SDS011;63425;44.786;37.682;2022-10-16T09:26:25;12.05;;;2.92;;
74876;SDS011;63425;44.786;37.682;2022-10-16T09:28:54;7.30;;;2.88;;
74876;SDS011;63425;44.786;37.682;2022-10-16T09:31:24;12.23;;;3.05;;
74876;SDS011;63425;44.786;37.682;2022-10-16T09:33:55;13.10;;;3.60;;
74876;SDS011;63425;44.786;37.682;2022-10-16T09:36:43;19.10;;;3.70;;
74876;SDS011;63425;44.786;37.682;2022-10-16T09:39:13;9.85;;;3.38;;
74876;SDS011;63425;44.786;37.682;2022-10-16T09:42:01;12.18;;;2.92;;
74876;SDS011;63425;44.786;37.682;2022-10-16T09:44:31;10.32;;;2.95;;
74876;SDS011;63425;44.786;37.682;2022-10-16T09:47:03;8.13;;;2.85;;
74876;SDS011;63425;44.786;37.682;2022-10-16T09:49:56;14.37;;;2.47;;
74876;SDS011;63425;44.786;37.682;2022-10-16T09:52:32;14.20;;;3.75;;
74876;SDS011;63425;44.786;37.682;2022-10-16T09:55:18;10.07;;;3.63;;
74876;SDS011;63425;44.786;37.682;2022-10-16T09:57:52;11.45;;;3.50;;
74876;SDS011;63425;44.786;37.682;2022-10-16T10:00:22;13.32;;;3.47;;
74876;SDS011;63425;44.786;37.682;2022-10-16T10:02:53;10.43;;;3.63;;
74876;SDS011;63425;44.786;37.682;2022-10-16T10:05:22;16.00;;;3.05;;
74876;SDS011;63425;44.786;37.682;2022-10-16T10:07:56;13.13;;;2.80;;
74876;SDS011;63425;44.786;37.682;2022-10-16T10:10:51;13.38;;;3.05;;
74876;SDS011;63425;44.786;37.682;2022-10-16T10:13:31;9.45;;;2.83;;
74876;SDS011;63425;44.786;37.682;2022-10-16T10:15:59;10.77;;;3.40;;
74876;SDS011;63425;44.786;37.682;2022-10-16T10:18:26;13.52;;;3.22;;
74876;SDS011;63425;44.786;37.682;2022-10-16T10:21:14;9.98;;;3.17;;
74876;SDS011;63425;44.786;37.682;2022-10-16T10:23:57;10.23;;;3.30;;
74876;SDS011;63425;44.786;37.682;2022-10-16T10:26:34;10.60;;;2.60;;
74876;SDS011;63425;44.786;37.682;2022-10-16T10:29:04;11.23;;;3.47;;
74876;SDS011;63425;44.786;37.682;2022-10-16T10:32:31;15.60;;;3.53;;
74876;SDS011;63425;44.786;37.682;2022-10-16T10:35:25;10.50;;;3.05;;
74876;SDS011;63425;44.786;37.682;2022-10-16T10:38:30;12.27;;;3.88;;
74876;SDS011;63425;44.786;37.682;2022-10-16T10:44:25;12.43;;;3.00;;
74876;SDS011;63425;44.786;37.682;2022-10-16T10:52:57;10.88;;;3.60;;
74876;SDS011;63425;44.786;37.682;2022-10-16T10:55:33;14.52;;;2.58;;
74876;SDS011;63425;44.786;37.682;2022-10-16T11:07:45;14.32;;;3.63;;
74876;SDS011;63425;44.786;37.682;2022-10-16T11:10:20;7.53;;;3.00;;
74876;SDS011;63425;44.786;37.682;2022-10-16T11:12:52;12.13;;;4.17;;
74876;SDS011;63425;44.786;37.682;2022-10-16T11:15:47;15.20;;;3.05;;
74876;SDS011;63425;44.786;37.682;2022-10-16T11:21:34;14.20;;;2.88;;
74876;SDS011;63425;44.786;37.682;2022-10-16T11:24:19;9.65;;;3.45;;
74876;SDS011;63425;44.786;37.682;2022-10-16T11:27:07;11.03;;;4.60;;
74876;SDS011;63425;44.786;37.682;2022-10-16T11:29:43;8.63;;;2.90;;
74876;SDS011;63425;44.786;37.682;2022-10-16T11:32:23;10.35;;;4.05;;
74876;SDS011;63425;44.786;37.682;2022-10-16T11:35:32;23.13;;;5.07;;
74876;SDS011;63425;44.786;37.682;2022-10-16T11:38:41;15.73;;;4.43;;
74876;SDS011;63425;44.786;37.682;2022-10-16T11:41:27;18.77;;;4.53;;
74876;SDS011;63425;44.786;37.682;2022-10-16T11:50:31;10.45;;;4.15;;
74876;SDS011;63425;44.786;37.682;2022-10-16T11:56:12;12.67;;;4.37;;
74876;SDS011;63425;44.786;37.682;2022-10-16T11:58:50;16.23;;;4.38;;
74876;SDS011;63425;44.786;37.682;2022-10-16T12:04:21;13.80;;;6.25;;
74876;SDS011;63425;44.786;37.682;2022-10-16T12:07:06;15.75;;;6.45;;
74876;SDS011;63425;44.786;37.682;2022-10-16T12:09:50;27.83;;;9.47;;
74876;SDS011;63425;44.786;37.682;2022-10-16T12:12:28;15.85;;;7.22;;
74876;SDS011;63425;44.786;37.682;2022-10-16T12:17:55;19.45;;;6.53;;
74876;SDS011;63425;44.786;37.682;2022-10-16T12:20:25;21.48;;;6.15;;
74876;SDS011;63425;44.786;37.682;2022-10-16T12:23:06;22.20;;;6.00;;
74876;SDS011;63425;44.786;37.682;2022-10-16T12:28:28;13.15;;;5.07;;
74876;SDS011;63425;44.786;37.682;2022-10-16T12:31:22;15.77;;;6.40;;
74876;SDS011;63425;44.786;37.682;2022-10-16T12:33:56;15.48;;;6.00;;
74876;SDS011;63425;44.786;37.682;2022-10-16T12:36:46;9.37;;;3.77;;
74876;SDS011;63425;44.786;37.682;2022-10-16T12:39:33;15.32;;;6.05;;
74876;SDS011;63425;44.786;37.682;2022-10-16T12:44:55;12.45;;;4.38;;
74876;SDS011;63425;44.786;37.682;2022-10-16T12:47:36;9.57;;;4.10;;
74876;SDS011;63425;44.786;37.682;2022-10-16T12:50:25;13.33;;;4.30;;
74876;SDS011;63425;44.786;37.682;2022-10-16T12:52:59;12.45;;;3.55;;
74876;SDS011;63425;44.786;37.682;2022-10-16T12:55:31;11.88;;;3.95;;
74876;SDS011;63425;44.786;37.682;2022-10-16T13:08:11;10.57;;;3.50;;
74876;SDS011;63425;44.786;37.682;2022-10-16T13:22:49;15.98;;;4.35;;
74876;SDS011;63425;44.786;37.682;2022-10-16T13:33:24;8.50;;;3.03;;
74876;SDS011;63425;44.786;37.682;2022-10-16T13:35:56;8.88;;;3.33;;
74876;SDS011;63425;44.786;37.682;2022-10-16T13:38:26;10.25;;;3.80;;
74876;SDS011;63425;44.786;37.682;2022-10-16T13:41:06;9.85;;;3.63;;
74876;SDS011;63425;44.786;37.682;2022-10-16T13:43:55;12.70;;;3.97;;
74876;SDS011;63425;44.786;37.682;2022-10-16T13:46:25;8.73;;;3.27;;
74876;SDS011;63425;44.786;37.682;2022-10-16T13:48:58;13.60;;;4.13;;
74876;SDS011;63425;44.786;37.682;2022-10-16T13:51:28;10.93;;;4.00;;
74876;SDS011;63425;44.786;37.682;2022-10-16T13:53:58;14.73;;;4.30;;
74876;SDS011;63425;44.786;37.682;2022-10-16T13:56:30;13.85;;;4.70;;
74876;SDS011;63425;44.786;37.682;2022-10-16T13:59:01;17.17;;;6.33;;
74876;SDS011;63425;44.786;37.682;2022-10-16T14:01:54;17.10;;;7.50;;
74876;SDS011;63425;44.786;37.682;2022-10-16T14:04:31;17.42;;;7.82;;
74876;SDS011;63425;44.786;37.682;2022-10-16T14:06:59;23.20;;;9.10;;
74876;SDS011;63425;44.786;37.682;2022-10-16T14:09:28;17.35;;;7.55;;
74876;SDS011;63425;44.786;37.682;2022-10-16T14:12:10;20.83;;;8.37;;
74876;SDS011;63425;44.786;37.682;2022-10-16T14:14:50;18.90;;;6.65;;
74876;SDS011;63425;44.786;37.682;2022-10-16T14:17:31;15.93;;;7.00;;
74876;SDS011;63425;44.786;37.682;2022-10-16T14:20:03;19.42;;;8.23;;
74876;SDS011;63425;44.786;37.682;2022-10-16T14:22:57;18.20;;;6.28;;
74876;SDS011;63425;44.786;37.682;2022-10-16T14:25:37;16.43;;;6.37;;
74876;SDS011;63425;44.786;37.682;2022-10-16T14:28:14;24.15;;;7.10;;
74876;SDS011;63425;44.786;37.682;2022-10-16T14:30:54;19.45;;;6.90;;
74876;SDS011;63425;44.786;37.682;2022-10-16T14:38:39;19.17;;;6.13;;
74876;SDS011;63425;44.786;37.682;2022-10-16T14:41:19;19.95;;;6.72;;
74876;SDS011;63425;44.786;37.682;2022-10-16T14:44:09;17.10;;;6.50;;
74876;SDS011;63425;44.786;37.682;2022-10-16T14:46:39;19.38;;;8.15;;
74876;SDS011;63425;44.786;37.682;2022-10-16T14:51:39;17.90;;;6.20;;
74876;SDS011;63425;44.786;37.682;2022-10-16T14:54:08;15.15;;;5.28;;
74876;SDS011;63425;44.786;37.682;2022-10-16T14:56:54;16.60;;;5.68;;
74876;SDS011;63425;44.786;37.682;2022-10-16T14:59:38;13.18;;;5.50;;
74876;SDS011;63425;44.786;37.682;2022-10-16T15:04:48;18.07;;;5.77;;
74876;SDS011;63425;44.786;37.682;2022-10-16T15:07:18;13.90;;;5.20;;
74876;SDS011;63425;44.786;37.682;2022-10-16T15:09:47;13.68;;;5.38;;
74876;SDS011;63425;44.786;37.682;2022-10-16T15:12:16;18.92;;;5.97;;
74876;SDS011;63425;44.786;37.682;2022-10-16T15:14:45;14.15;;;5.22;;
74876;SDS011;63425;44.786;37.682;2022-10-16T15:17:14;33.90;;;6.77;;
74876;SDS011;63425;44.786;37.682;2022-10-16T15:19:44;15.43;;;5.32;;
74876;SDS011;63425;44.786;37.682;2022-10-16T15:22:11;22.60;;;6.75;;
74876;SDS011;63425;44.786;37.682;2022-10-16T15:24:49;15.32;;;6.07;;
74876;SDS011;63425;44.786;37.682;2022-10-16T15:27:18;20.55;;;8.23;;
74876;SDS011;63425;44.786;37.682;2022-10-16T15:29:46;18.10;;;5.90;;
74876;SDS011;63425;44.786;37.682;2022-10-16T15:32:14;15.05;;;6.22;;
74876;SDS011;63425;44.786;37.682;2022-10-16T15:34:45;19.90;;;6.82;;
74876;SDS011;63425;44.786;37.682;2022-10-16T15:37:13;13.02;;;5.03;;
74876;SDS011;63425;44.786;37.682;2022-10-16T15:39:43;15.07;;;6.15;;
74876;SDS011;63425;44.786;37.682;2022-10-16T15:42:18;19.60;;;4.73;;
74876;SDS011;63425;44.786;37.682;2022-10-16T15:44:46;14.15;;;4.82;;
74876;SDS011;63425;44.786;37.682;2022-10-16T15:47:14;11.38;;;3.95;;
74876;SDS011;63425;44.786;37.682;2022-10-16T15:49:45;19.60;;;5.65;;
74876;SDS011;63425;44.786;37.682;2022-10-16T15:52:16;12.23;;;3.97;;
74876;SDS011;63425;44.786;37.682;2022-10-16T15:54:45;17.10;;;4.83;;
74876;SDS011;63425;44.786;37.682;2022-10-16T15:57:13;15.13;;;4.05;;
74876;SDS011;63425;44.786;37.682;2022-10-16T15:59:40;12.02;;;3.78;;
74876;SDS011;63425;44.786;37.682;2022-10-16T16:02:08;16.58;;;3.92;;
74876;SDS011;63425;44.786;37.682;2022-10-16T16:04:37;19.00;;;4.35;;
74876;SDS011;63425;44.786;37.682;2022-10-16T16:07:05;14.97;;;5.07;;
74876;SDS011;63425;44.786;37.682;2022-10-16T16:09:44;12.07;;;4.00;;
74876;SDS011;63425;44.786;37.682;2022-10-16T16:12:15;17.40;;;5.25;;
74876;SDS011;63425;44.786;37.682;2022-10-16T16:14:44;16.75;;;6.45;;
74876;SDS011;63425;44.786;37.682;2022-10-16T16:17:26;21.27;;;7.45;;
74876;SDS011;63425;44.786;37.682;2022-10-16T16:19:54;17.40;;;6.60;;
74876;SDS011;63425;44.786;37.682;2022-10-16T16:22:24;14.68;;;5.30;;
74876;SDS011;63425;44.786;37.682;2022-10-16T16:24:54;17.33;;;6.03;;
74876;SDS011;63425;44.786;37.682;2022-10-16T16:27:20;12.95;;;4.60;;
74876;SDS011;63425;44.786;37.682;2022-10-16T16:30:01;15.10;;;3.95;;
74876;SDS011;63425;44.786;37.682;2022-10-16T16:32:30;11.63;;;4.07;;
74876;SDS011;63425;44.786;37.682;2022-10-16T16:34:59;12.32;;;3.75;;
74876;SDS011;63425;44.786;37.682;2022-10-16T16:37:28;15.00;;;4.13;;
74876;SDS011;63425;44.786;37.682;2022-10-16T16:39:55;11.13;;;3.08;;
74876;SDS011;63425;44.786;37.682;2022-10-16T16:42:34;11.98;;;3.72;;
74876;SDS011;63425;44.786;37.682;2022-10-16T16:45:05;12.43;;;4.27;;
74876;SDS011;63425;44.786;37.682;2022-10-16T16:47:58;13.50;;;4.80;;
74876;SDS011;63425;44.786;37.682;2022-10-16T16:50:26;15.77;;;4.43;;
74876;SDS011;63425;44.786;37.682;2022-10-16T16:52:53;14.45;;;5.38;;
74876;SDS011;63425;44.786;37.682;2022-10-16T16:55:20;14.63;;;5.60;;
74876;SDS011;63425;44.786;37.682;2022-10-16T16:58:06;18.33;;;6.23;;
74876;SDS011;63425;44.786;37.682;2022-10-16T17:00:35;13.38;;;4.82;;
74876;SDS011;63425;44.786;37.682;2022-10-16T17:03:03;24.63;;;5.95;;